Time;durP1;ratioP1;P1;durP2;ratioP2;P2;SDS_P1;SDS_P2;PMS_P1;PMS_P2;Temp;Humidity;BMP_temperature;BMP_pressure;BME280_temperature;BME280_humidity;BME280_pressure;Samples;Min_cycle;Max_cycle;Signal;HPM_P1;HPM_P2
2023/12/14 00:01:13;;;;;;;21.02;12.45;;;;;;;3.62;81.65;93742.31;5092478;28;20053;-76
2023/12/14 00:03:40;;;;;;;18.55;11.57;;;;;;;3.44;82.18;93744.47;5094119;28;20044;-76
2023/12/14 00:06:10;;;;;;;16.92;11.27;;;;;;;3.58;81.12;93718.63;5091655;28;20133;-76
2023/12/14 00:08:35;;;;;;;16.50;9.90;;;;;;;3.67;80.30;93745.38;5072847;28;20039;-76
2023/12/14 00:11:05;;;;;;;15.07;10.13;;;;;;;3.64;80.57;93729.38;5092236;28;20028;-76
2023/12/14 00:13:30;;;;;;;16.58;10.38;;;;;;;3.34;81.47;93715.25;5074375;28;20055;-76
2023/12/14 00:15:56;;;;;;;14.88;10.00;;;;;;;3.25;82.49;93754.41;5123830;27;20481;-76
2023/12/14 00:18:21;;;;;;;14.52;10.10;;;;;;;3.49;81.85;93739.84;5123956;27;20101;-76
2023/12/14 00:20:48;;;;;;;16.73;10.32;;;;;;;3.46;81.74;93732.34;5073541;28;20024;-76
2023/12/14 00:23:13;;;;;;;15.82;9.80;;;;;;;3.46;82.26;93745.19;5092231;28;20069;-76
2023/12/14 00:25:39;;;;;;;17.45;10.18;;;;;;;3.39;82.39;93738.84;5094405;28;20281;-76
2023/12/14 00:28:04;;;;;;;13.95;9.48;;;;;;;3.44;81.90;93743.66;5091146;28;20390;-76
2023/12/14 00:30:30;;;;;;;12.95;9.07;;;;;;;3.48;82.09;93745.91;5091752;28;20044;-76
2023/12/14 00:32:55;;;;;;;18.67;11.45;;;;;;;3.62;81.49;93731.22;5089925;28;20600;-76
2023/12/14 00:35:20;;;;;;;28.52;15.63;;;;;;;3.55;81.69;93736.00;5074711;28;20083;-76
2023/12/14 00:37:46;;;;;;;20.42;12.23;;;;;;;3.61;81.20;93709.06;5089727;28;20031;-76
2023/12/14 00:40:11;;;;;;;16.75;10.80;;;;;;;3.52;81.36;93719.06;5074578;28;20056;-76
2023/12/14 00:42:37;;;;;;;15.77;10.32;;;;;;;3.61;80.71;93716.75;5092648;28;20417;-76
2023/12/14 00:45:03;;;;;;;13.25;10.13;;;;;;;3.60;80.64;93749.34;5091568;28;20024;-76
2023/12/14 00:47:28;;;;;;;19.65;11.07;;;;;;;3.55;80.23;93706.00;5089554;28;20035;-76
2023/12/14 00:49:53;;;;;;;15.27;10.15;;;;;;;3.55;80.81;93730.88;5074195;28;20490;-76
2023/12/14 00:52:19;;;;;;;14.60;10.13;;;;;;;3.30;81.16;93711.28;5100588;28;20023;-76
2023/12/14 00:54:44;;;;;;;16.92;11.02;;;;;;;3.43;80.15;93718.94;5069382;28;20048;-76
2023/12/14 00:57:10;;;;;;;16.13;8.98;;;;;;;3.36;79.99;93706.50;5077765;28;20020;-76
2023/12/14 00:59:35;;;;;;;14.98;10.88;;;;;;;3.18;82.22;93730.13;5089687;28;20418;-76
2023/12/14 01:02:00;;;;;;;23.80;15.48;;;;;;;3.09;82.55;93699.06;5097408;28;20028;-76
2023/12/14 01:04:26;;;;;;;24.08;14.60;;;;;;;3.18;83.14;93733.50;5067715;28;20048;-76
2023/12/14 01:06:51;;;;;;;18.20;12.18;;;;;;;3.34;82.89;93744.34;5068798;28;20553;-76
2023/12/14 01:09:17;;;;;;;18.67;11.50;;;;;;;3.24;82.45;93722.81;5072685;28;20033;-75
2023/12/14 01:11:42;;;;;;;17.48;11.30;;;;;;;2.89;83.77;93723.53;5091703;28;20024;-75
2023/12/14 01:14:08;;;;;;;19.83;12.05;;;;;;;2.98;83.35;93734.94;5092175;28;20020;-76
2023/12/14 01:16:33;;;;;;;15.98;10.80;;;;;;;2.85;84.23;93737.53;5091933;28;20024;-77
2023/12/14 01:18:59;;;;;;;17.02;11.25;;;;;;;2.88;84.71;93715.97;5072445;28;20043;-76
2023/12/14 01:21:24;;;;;;;16.30;10.55;;;;;;;3.00;84.37;93730.47;5090560;28;20024;-76
2023/12/14 01:23:49;;;;;;;14.98;9.90;;;;;;;2.85;82.50;93685.41;5124686;27;20032;-76
2023/12/14 01:26:15;;;;;;;16.67;10.15;;;;;;;3.18;82.78;93748.09;5073645;28;20016;-76
2023/12/14 01:28:40;;;;;;;16.42;9.35;;;;;;;2.99;82.93;93725.47;5090759;28;20027;-76
2023/12/14 01:31:06;;;;;;;17.48;10.68;;;;;;;2.98;83.18;93750.31;5090463;28;20082;-76
2023/12/14 01:33:31;;;;;;;14.77;9.65;;;;;;;2.61;83.30;93691.31;5098777;28;20039;-76
2023/12/14 01:35:57;;;;;;;15.50;9.88;;;;;;;2.94;83.69;93736.06;5110787;28;20394;-76
2023/12/14 01:38:22;;;;;;;14.63;10.43;;;;;;;2.96;83.76;93728.25;5092194;28;20029;-76
2023/12/14 01:40:47;;;;;;;14.75;9.93;;;;;;;2.88;83.70;93723.66;5073607;28;20032;-76
2023/12/14 01:43:13;;;;;;;14.27;9.70;;;;;;;2.49;84.69;93689.59;5089917;28;20448;-76
2023/12/14 01:45:38;;;;;;;14.25;9.60;;;;;;;2.62;84.82;93707.53;5072093;28;20471;-76
2023/12/14 01:48:04;;;;;;;15.45;10.75;;;;;;;2.81;85.35;93730.13;5091770;28;20391;-76
2023/12/14 01:50:30;;;;;;;16.50;10.55;;;;;;;2.79;85.42;93734.56;5073376;28;20040;-76
2023/12/14 01:52:55;;;;;;;15.35;10.95;;;;;;;2.93;84.89;93731.03;5091679;28;20126;-76
2023/12/14 01:55:21;;;;;;;17.73;11.55;;;;;;;2.83;85.22;93718.03;5090034;28;20077;-77
2023/12/14 01:57:46;;;;;;;16.60;10.25;;;;;;;2.81;85.00;93732.69;5091482;28;20114;-76
2023/12/14 02:00:18;;;;;;;21.65;12.07;;;;;;;2.91;84.84;93728.56;5073338;28;20024;-76
2023/12/14 02:02:44;;;;;;;14.60;10.38;;;;;;;2.72;84.42;93711.06;5090231;28;20132;-76
2023/12/14 02:05:09;;;;;;;14.35;10.13;;;;;;;2.91;84.06;93711.44;5088069;28;20028;-76
2023/12/14 02:07:34;;;;;;;15.25;10.63;;;;;;;2.77;83.90;93719.28;5073155;28;20036;-76
2023/12/14 02:10:00;;;;;;;15.10;10.13;;;;;;;2.94;83.36;93722.41;5090041;28;20051;-76
2023/12/14 02:12:26;;;;;;;16.55;11.00;;;;;;;2.98;83.81;93722.09;5096307;28;20496;-76
2023/12/14 02:14:51;;;;;;;16.77;10.07;;;;;;;2.83;83.88;93708.56;5103454;28;20473;-76
2023/12/14 02:17:17;;;;;;;18.80;11.32;;;;;;;2.90;83.86;93693.59;5110360;28;20039;-76
2023/12/14 02:19:42;;;;;;;14.55;10.10;;;;;;;2.62;83.74;93659.63;5111444;28;20023;-76
2023/12/14 02:22:07;;;;;;;14.65;10.13;;;;;;;2.95;83.71;93670.97;5077295;28;20035;-76
2023/12/14 02:24:33;;;;;;;16.35;10.23;;;;;;;2.89;83.96;93686.81;5102036;28;20036;-76
2023/12/14 02:26:58;;;;;;;15.90;10.63;;;;;;;3.00;84.11;93686.88;5091042;28;20016;-76
2023/12/14 02:29:24;;;;;;;15.30;10.43;;;;;;;3.11;83.30;93689.47;5074592;28;20051;-76
2023/12/14 02:31:49;;;;;;;15.70;10.23;;;;;;;2.92;83.35;93660.94;5081041;28;20047;-76
2023/12/14 02:34:14;;;;;;;14.45;10.45;;;;;;;3.09;82.70;93693.94;5089833;28;20475;-76
2023/12/14 02:36:40;;;;;;;14.25;10.63;;;;;;;2.93;83.53;93684.88;5087602;28;20028;-76
2023/12/14 02:39:05;;;;;;;16.75;12.18;;;;;;;3.05;83.24;93691.69;5110177;28;20065;-76
2023/12/14 02:41:31;;;;;;;20.73;16.00;;;;;;;3.15;82.19;93702.94;5092681;28;20036;-76
2023/12/14 02:43:56;;;;;;;19.65;13.82;;;;;;;3.01;82.34;93683.38;5088809;28;20066;-76
2023/12/14 02:46:21;;;;;;;17.73;11.85;;;;;;;2.90;82.51;93694.41;5103365;28;20024;-76
2023/12/14 02:48:47;;;;;;;12.82;8.40;;;;;;;2.92;83.18;93686.59;5089561;28;20101;-76
2023/12/14 02:51:16;;;;;;;12.90;8.88;;;;;;;2.78;83.46;93705.50;5090804;28;20509;-76
2023/12/14 02:53:42;;;;;;;13.55;9.23;;;;;;;2.65;83.63;93708.13;5088471;28;20028;-76
2023/12/14 02:56:09;;;;;;;14.52;9.90;;;;;;;2.79;84.43;93711.50;5054764;28;20036;-76
2023/12/14 02:58:34;;;;;;;13.32;9.18;;;;;;;3.01;83.80;93716.75;5072813;28;20119;-75
2023/12/14 03:01:00;;;;;;;13.85;10.82;;;;;;;3.00;83.91;93717.66;5089456;28;20020;-76
2023/12/14 03:03:25;;;;;;;12.13;8.65;;;;;;;2.54;83.85;93667.03;5123525;28;20081;-76
2023/12/14 03:05:51;;;;;;;15.00;8.95;;;;;;;2.86;84.26;93671.63;5085732;28;20436;-76
2023/12/14 03:08:16;;;;;;;23.23;12.45;;;;;;;2.97;84.27;93724.75;5092630;28;20429;-76
2023/12/14 03:10:41;;;;;;;28.60;15.73;;;;;;;2.89;84.20;93689.38;5109712;28;20032;-76
2023/12/14 03:13:07;;;;;;;28.52;15.50;;;;;;;3.09;84.57;93727.28;5101436;28;20025;-76
2023/12/14 03:15:32;;;;;;;18.73;10.55;;;;;;;3.11;84.19;93711.78;5054647;28;20043;-76
2023/12/14 03:17:58;;;;;;;17.38;11.02;;;;;;;2.97;84.56;93699.91;5109140;28;20037;-76
2023/12/14 03:20:23;;;;;;;14.60;9.60;;;;;;;3.06;84.80;93689.00;5127306;27;20024;-76
2023/12/14 03:22:48;;;;;;;13.68;8.80;;;;;;;2.72;84.60;93641.03;5091798;28;20028;-76
2023/12/14 03:25:14;;;;;;;13.68;8.48;;;;;;;3.14;84.15;93665.34;5093087;28;20032;-76
2023/12/14 03:27:39;;;;;;;12.20;7.97;;;;;;;3.20;83.98;93674.34;5086852;28;20063;-76
2023/12/14 03:30:07;;;;;;;11.68;7.63;;;;;;;3.04;84.64;93652.38;5091842;28;20040;-76
2023/12/14 03:32:33;;;;;;;11.55;7.97;;;;;;;3.35;84.10;93686.09;5091199;28;20090;-76
2023/12/14 03:34:58;;;;;;;15.00;8.50;;;;;;;3.54;83.91;93665.84;5094828;28;20032;-76
2023/12/14 03:37:24;;;;;;;13.18;8.10;;;;;;;3.55;83.92;93664.91;5092966;28;20020;-76
2023/12/14 03:39:49;;;;;;;11.95;8.18;;;;;;;3.64;83.38;93652.31;5062428;28;20117;-76
2023/12/14 03:42:15;;;;;;;11.48;7.78;;;;;;;3.76;82.73;93670.22;5090695;28;20040;-76
2023/12/14 03:44:40;;;;;;;10.90;7.78;;;;;;;3.52;82.93;93665.13;5097867;28;20031;-76
2023/12/14 03:47:06;;;;;;;12.55;7.50;;;;;;;3.86;81.52;93662.63;5093836;28;20066;-76
2023/12/14 03:49:36;;;;;;;13.20;8.40;;;;;;;3.62;81.97;93675.53;5095804;28;20039;-76
2023/12/14 03:52:02;;;;;;;12.95;9.13;;;;;;;3.54;82.33;93649.63;5080718;28;20022;-76
2023/12/14 03:54:27;;;;;;;14.68;10.20;;;;;;;3.53;82.16;93635.13;5078930;28;20043;-76
2023/12/14 03:56:52;;;;;;;12.93;8.70;;;;;;;3.75;81.21;93657.47;5080074;28;20305;-76
2023/12/14 03:59:18;;;;;;;13.13;9.00;;;;;;;3.53;81.57;93648.78;5092491;28;20028;-75
2023/12/14 04:01:43;;;;;;;13.80;9.70;;;;;;;3.21;82.32;93629.81;5095694;28;20130;-75
2023/12/14 04:04:09;;;;;;;16.40;9.20;;;;;;;3.55;82.54;93643.56;5091979;28;20035;-76
2023/12/14 04:06:34;;;;;;;14.50;9.43;;;;;;;3.57;81.56;93652.78;5091816;28;20063;-76
2023/12/14 04:09:00;;;;;;;13.23;9.38;;;;;;;3.42;82.66;93656.47;5088876;28;20101;-72
2023/12/14 04:11:25;;;;;;;20.38;13.50;;;;;;;3.14;83.97;93635.38;5093071;28;20053;-76
2023/12/14 04:13:53;;;;;;;21.42;14.25;;;;;;;3.39;84.15;93681.56;5074812;28;20043;-76
2023/12/14 04:16:22;;;;;;;19.10;12.25;;;;;;;3.26;83.66;93636.25;5090154;28;20051;-76
2023/12/14 04:18:48;;;;;;;22.95;14.50;;;;;;;3.35;83.77;93674.06;5074081;28;20040;-76
2023/12/14 04:21:13;;;;;;;23.55;15.63;;;;;;;3.43;83.39;93665.81;5090381;28;20077;-76
2023/12/14 04:23:39;;;;;;;19.17;12.80;;;;;;;3.47;82.96;93698.03;5091974;28;20410;-76
2023/12/14 04:26:04;;;;;;;19.20;11.30;;;;;;;3.39;82.66;93659.25;5094255;28;20085;-76
2023/12/14 04:28:30;;;;;;;15.25;10.13;;;;;;;3.28;82.84;93692.59;5090782;28;20093;-76
2023/12/14 04:30:55;;;;;;;19.30;11.27;;;;;;;3.32;83.76;93663.22;5096759;28;20040;-77
2023/12/14 04:33:21;;;;;;;17.75;11.52;;;;;;;3.38;83.83;93708.16;5091735;28;20035;-76
2023/12/14 04:35:46;;;;;;;12.48;9.45;;;;;;;3.25;83.28;93665.41;5095173;28;20032;-76
2023/12/14 04:38:11;;;;;;;15.88;9.18;;;;;;;3.34;83.32;93681.88;5089871;28;20040;-76
2023/12/14 04:40:37;;;;;;;10.02;6.82;;;;;;;3.31;83.62;93666.69;5098308;28;20032;-76
2023/12/14 04:43:03;;;;;;;10.55;6.72;;;;;;;3.44;84.25;93682.03;5091493;28;20032;-76
2023/12/14 04:45:28;;;;;;;11.95;8.38;;;;;;;3.39;83.85;93666.16;5099375;28;20073;-76
2023/12/14 04:47:53;;;;;;;10.65;7.60;;;;;;;3.37;84.04;93681.66;5074107;28;20048;-76
2023/12/14 04:50:19;;;;;;;10.00;7.45;;;;;;;3.57;83.43;93672.50;5097196;28;20028;-76
2023/12/14 04:52:44;;;;;;;10.93;7.45;;;;;;;3.61;83.07;93675.66;5091092;28;20110;-76
2023/12/14 04:55:10;;;;;;;10.40;6.05;;;;;;;3.61;82.71;93688.50;5088549;28;20039;-76
2023/12/14 04:57:36;;;;;;;9.25;6.00;;;;;;;3.51;83.29;93676.34;5089541;28;20029;-76
2023/12/14 05:00:02;;;;;;;9.90;5.93;;;;;;;3.53;83.06;93674.47;5090146;28;20034;-76
2023/12/14 05:02:27;;;;;;;7.55;5.20;;;;;;;3.63;82.47;93702.06;5090839;28;20036;-76
2023/12/14 05:04:53;;;;;;;13.35;9.55;;;;;;;3.62;82.50;93695.28;5092281;28;20077;-76
2023/12/14 05:07:19;;;;;;;15.77;11.90;;;;;;;3.51;82.78;93689.19;5088708;28;20028;-76
2023/12/14 05:09:44;;;;;;;17.80;13.50;;;;;;;3.19;83.93;93655.56;5063092;28;20046;-76
2023/12/14 05:12:09;;;;;;;14.48;10.18;;;;;;;3.62;82.67;93677.28;5089962;28;20043;-76
2023/12/14 05:14:35;;;;;;;13.20;8.05;;;;;;;3.65;82.28;93677.91;5097138;28;20031;-76
2023/12/14 05:17:00;;;;;;;12.32;7.75;;;;;;;3.12;83.26;93675.75;5094331;28;20028;-76
2023/12/14 05:19:26;;;;;;;10.45;6.75;;;;;;;3.42;82.13;93663.34;5090488;28;20024;-76
2023/12/14 05:21:53;;;;;;;9.98;5.72;;;;;;;3.43;81.49;93670.16;5088908;28;20459;-76
2023/12/14 05:24:19;;;;;;;6.78;5.07;;;;;;;3.50;81.58;93667.00;5092519;28;20417;-76
2023/12/14 05:26:44;;;;;;;9.82;5.53;;;;;;;3.25;82.05;93654.31;5097859;28;20024;-76
2023/12/14 05:29:10;;;;;;;17.00;9.45;;;;;;;3.22;82.68;93646.84;5090676;28;20036;-76
2023/12/14 05:31:35;;;;;;;13.70;9.88;;;;;;;3.12;83.37;93673.19;5090505;28;20479;-76
2023/12/14 05:34:01;;;;;;;20.13;12.52;;;;;;;3.24;83.76;93665.53;5122744;27;20478;-76
2023/12/14 05:36:26;;;;;;;13.38;8.48;;;;;;;3.15;83.15;93636.22;5098839;28;20039;-76
2023/12/14 05:38:51;;;;;;;15.90;9.60;;;;;;;3.33;82.96;93677.69;5088657;28;20039;-76
2023/12/14 05:41:17;;;;;;;10.80;7.10;;;;;;;3.32;82.45;93686.31;5079327;28;20452;-76
2023/12/14 05:43:42;;;;;;;29.05;16.40;;;;;;;2.86;83.48;93667.31;5090434;28;20028;-76
2023/12/14 05:46:08;;;;;;;21.40;13.57;;;;;;;2.97;83.92;93689.66;5091557;28;20085;-76
2023/12/14 05:48:33;;;;;;;36.00;21.05;;;;;;;3.05;83.54;93679.66;5072715;28;20038;-76
2023/12/14 05:50:59;;;;;;;27.45;17.40;;;;;;;3.08;84.00;93697.41;5108974;27;20024;-76
2023/12/14 05:53:25;;;;;;;32.63;20.33;;;;;;;2.89;84.21;93668.84;5091195;28;20040;-77
2023/12/14 05:55:50;;;;;;;28.88;18.95;;;;;;;2.99;83.79;93669.84;5088559;28;20110;-76
2023/12/14 05:58:16;;;;;;;28.70;19.70;;;;;;;2.93;84.76;93706.22;5088587;28;20036;-76
2023/12/14 06:00:41;;;;;;;30.70;19.00;;;;;;;3.06;84.48;93689.00;5099425;28;20028;-76
2023/12/14 06:03:07;;;;;;;24.15;14.63;;;;;;;3.11;83.53;93686.09;5105365;28;20059;-76
2023/12/14 06:05:32;;;;;;;20.50;14.35;;;;;;;2.85;85.09;93721.31;5113601;27;20028;-76
2023/12/14 06:07:58;;;;;;;20.08;14.10;;;;;;;2.97;85.02;93699.09;5098522;28;20028;-76
2023/12/14 06:10:23;;;;;;;19.88;14.13;;;;;;;3.09;85.08;93724.72;5089475;28;20032;-76
2023/12/14 06:12:48;;;;;;;17.10;10.73;;;;;;;2.96;84.93;93700.03;5128683;27;20391;-76
2023/12/14 06:15:14;;;;;;;16.27;9.75;;;;;;;3.19;84.23;93706.91;5097274;28;20246;-76
2023/12/14 06:17:41;;;;;;;12.90;8.27;;;;;;;3.13;84.61;93705.59;5086590;28;20032;-76
2023/12/14 06:20:10;;;;;;;15.25;8.38;;;;;;;3.16;84.71;93731.97;5087386;28;20054;-76
2023/12/14 06:22:38;;;;;;;14.75;10.65;;;;;;;3.30;84.67;93742.91;5088747;28;20513;-76
2023/12/14 06:25:04;;;;;;;10.60;7.47;;;;;;;3.33;84.12;93711.88;5071129;28;20085;-76
2023/12/14 06:27:30;;;;;;;11.27;7.32;;;;;;;3.44;83.84;93735.97;5069695;28;20454;-76
2023/12/14 06:29:55;;;;;;;12.32;7.50;;;;;;;3.32;84.60;93735.91;5088267;28;20047;-76
2023/12/14 06:32:21;;;;;;;11.05;7.43;;;;;;;3.53;84.26;93748.13;5098253;28;20030;-76
2023/12/14 06:34:46;;;;;;;11.55;7.28;;;;;;;3.43;84.43;93735.16;5089933;28;20063;-76
2023/12/14 06:37:11;;;;;;;10.48;7.30;;;;;;;3.56;84.19;93756.41;5053197;28;20055;-76
2023/12/14 06:39:37;;;;;;;12.05;8.80;;;;;;;3.77;83.43;93741.22;5091499;28;20405;-76
2023/12/14 06:42:02;;;;;;;10.43;7.38;;;;;;;3.50;84.14;93743.22;5088533;28;20028;-76
2023/12/14 06:44:30;;;;;;;11.10;7.53;;;;;;;3.85;83.46;93755.25;5093316;28;20028;-76
2023/12/14 06:46:57;;;;;;;10.68;7.47;;;;;;;3.93;82.70;93756.34;5086300;28;20058;-76
2023/12/14 06:49:23;;;;;;;11.95;7.63;;;;;;;3.90;83.29;93759.13;5082677;28;20111;-76
2023/12/14 06:51:48;;;;;;;9.77;6.90;;;;;;;3.83;82.91;93752.78;5089284;28;20035;-76
2023/12/14 06:54:14;;;;;;;9.20;6.28;;;;;;;3.97;82.58;93756.91;5090786;28;20032;-76
2023/12/14 06:56:39;;;;;;;8.95;6.63;;;;;;;4.05;82.95;93769.22;5092584;28;20456;-76
2023/12/14 06:59:05;;;;;;;11.57;6.95;;;;;;;3.81;82.46;93726.38;5090446;28;20028;-77
2023/12/14 07:01:30;;;;;;;10.52;6.72;;;;;;;4.30;82.08;93765.63;5080775;28;20039;-77
2023/12/14 07:03:55;;;;;;;11.43;6.93;;;;;;;3.89;83.44;93770.31;5092360;28;20035;-77
2023/12/14 07:06:21;;;;;;;18.38;12.13;;;;;;;3.87;83.73;93756.75;5108300;28;20031;-77
2023/12/14 07:08:47;;;;;;;25.20;14.73;;;;;;;4.17;83.68;93781.97;5093948;28;20032;-77
2023/12/14 07:11:13;;;;;;;23.00;14.32;;;;;;;4.37;82.57;93782.22;5093886;28;20024;-77
2023/12/14 07:13:38;;;;;;;20.42;12.13;;;;;;;4.35;82.82;93771.25;5093163;28;20058;-77
2023/12/14 07:16:05;;;;;;;21.48;13.00;;;;;;;4.52;82.90;93773.38;5112300;28;20028;-77
2023/12/14 07:18:31;;;;;;;14.45;10.00;;;;;;;4.57;82.65;93749.84;5111347;28;20035;-76
2023/12/14 07:20:56;;;;;;;20.17;13.60;;;;;;;4.44;83.41;93780.84;5095227;28;20065;-77
2023/12/14 07:23:22;;;;;;;23.20;17.58;;;;;;;4.49;82.67;93747.88;5114351;28;20034;-77
2023/12/14 07:25:47;;;;;;;20.40;14.82;;;;;;;4.53;82.04;93766.47;5112407;28;20485;-76
2023/12/14 07:28:13;;;;;;;21.02;14.70;;;;;;;4.81;82.02;93789.16;5114891;28;20032;-76
2023/12/14 07:30:38;;;;;;;20.95;15.23;;;;;;;4.83;81.62;93782.16;5114418;28;20505;-77
2023/12/14 07:33:04;;;;;;;23.08;15.68;;;;;;;4.82;82.07;93793.38;5114892;27;20520;-77
2023/12/14 07:35:29;;;;;;;21.50;14.77;;;;;;;5.01;81.65;93768.78;5114520;28;20482;-76
2023/12/14 07:37:54;;;;;;;23.60;14.13;;;;;;;5.13;81.74;93791.84;5114671;28;20027;-77
2023/12/14 07:40:20;;;;;;;20.70;14.65;;;;;;;5.36;80.62;93784.88;5096199;28;20031;-76
2023/12/14 07:42:45;;;;;;;23.33;17.95;;;;;;;5.40;80.20;93780.28;5113464;28;20039;-77
2023/12/14 07:45:11;;;;;;;21.48;16.30;;;;;;;5.05;81.14;93776.16;5096074;28;20024;-77
2023/12/14 07:47:36;;;;;;;25.75;18.73;;;;;;;5.29;81.18;93799.19;5096225;28;20035;-76
2023/12/14 07:50:02;;;;;;;22.50;17.13;;;;;;;5.39;80.42;93796.69;5096059;28;20020;-76
2023/12/14 07:52:27;;;;;;;25.55;19.00;;;;;;;5.48;80.83;93793.38;5114653;28;20031;-76
2023/12/14 07:54:53;;;;;;;24.92;19.90;;;;;;;5.43;80.85;93780.06;5095845;28;20027;-77
2023/12/14 07:57:18;;;;;;;25.15;18.70;;;;;;;5.67;79.65;93777.28;5079261;28;20032;-77
2023/12/14 07:59:46;;;;;;;25.13;18.48;;;;;;;5.90;79.29;93779.78;5114176;28;20016;-77
2023/12/14 08:02:11;;;;;;;19.88;15.05;;;;;;;5.95;79.78;93790.56;5112904;28;20102;-76
2023/12/14 08:04:37;;;;;;;18.08;13.88;;;;;;;6.15;79.30;93802.66;5111517;28;20035;-77
2023/12/14 08:07:02;;;;;;;18.40;11.70;;;;;;;6.24;79.07;93793.34;5112928;28;20421;-77
2023/12/14 08:09:28;;;;;;;15.60;11.57;;;;;;;6.31;79.01;93802.22;5112982;28;20031;-76
2023/12/14 08:11:53;;;;;;;14.95;11.18;;;;;;;6.53;78.63;93801.28;5113951;28;20027;-76
2023/12/14 08:14:18;;;;;;;15.50;11.93;;;;;;;6.83;77.95;93804.84;5095733;28;20413;-77
2023/12/14 08:16:44;;;;;;;16.23;12.35;;;;;;;6.91;77.30;93794.69;5095700;28;20482;-77
2023/12/14 08:19:09;;;;;;;21.75;17.05;;;;;;;6.84;77.88;93803.88;5095693;28;20405;-77
2023/12/14 08:21:35;;;;;;;29.05;19.80;;;;;;;7.03;75.65;93783.31;5095779;28;20031;-77
2023/12/14 08:24:00;;;;;;;27.25;17.80;;;;;;;7.10;75.12;93794.75;5095504;28;20032;-76
2023/12/14 08:26:25;;;;;;;25.02;17.90;;;;;;;6.96;76.22;93797.69;5095510;28;20024;-77
2023/12/14 08:28:51;;;;;;;24.63;17.20;;;;;;;6.84;76.30;93788.41;5112479;28;20027;-77
2023/12/14 08:31:16;;;;;;;21.77;17.48;;;;;;;7.14;75.50;93815.97;5113573;28;20051;-77
2023/12/14 08:33:42;;;;;;;19.95;15.77;;;;;;;7.22;75.60;93805.00;5113801;28;20047;-77
2023/12/14 08:36:08;;;;;;;26.85;18.05;;;;;;;7.23;74.99;93797.09;5078343;28;20046;-77
2023/12/14 08:38:33;;;;;;;27.60;19.30;;;;;;;7.07;76.04;93805.31;5113495;28;20063;-77
2023/12/14 08:40:59;;;;;;;28.35;19.10;;;;;;;7.34;74.39;93802.16;5095031;28;20448;-77
2023/12/14 08:43:24;;;;;;;38.83;24.85;;;;;;;7.54;72.24;93810.78;5112124;28;20482;-77
2023/12/14 08:45:49;;;;;;;38.05;24.52;;;;;;;7.46;72.18;93799.47;5095063;28;20035;-77
2023/12/14 08:48:15;;;;;;;33.03;22.90;;;;;;;7.32;74.05;93805.81;5112035;28;20036;-77
2023/12/14 08:50:40;;;;;;;24.40;17.23;;;;;;;7.61;73.58;93809.31;5111935;28;20028;-77
2023/12/14 08:53:06;;;;;;;22.23;16.13;;;;;;;7.68;72.88;93808.75;5113303;28;20498;-77
2023/12/14 08:55:32;;;;;;;17.85;13.77;;;;;;;7.67;72.96;93786.47;5094912;28;20078;-77
2023/12/14 08:57:57;;;;;;;18.00;12.90;;;;;;;7.81;73.32;93817.09;5111858;28;20028;-77
2023/12/14 09:00:23;;;;;;;17.60;12.93;;;;;;;7.99;72.20;93818.03;5111810;28;20504;-77
2023/12/14 09:02:49;;;;;;;15.65;11.38;;;;;;;8.01;70.88;93818.72;5094835;28;20488;-77
2023/12/14 09:05:16;;;;;;;14.80;10.60;;;;;;;8.19;70.54;93797.34;5111806;28;20031;-77
2023/12/14 09:07:42;;;;;;;15.70;9.82;;;;;;;8.38;69.62;93812.03;5111769;28;20028;-77
2023/12/14 09:10:07;;;;;;;12.38;8.23;;;;;;;8.43;68.85;93802.94;5111568;28;20527;-77
2023/12/14 09:12:34;;;;;;;13.88;8.65;;;;;;;8.63;68.71;93823.59;5111352;28;20039;-77
2023/12/14 09:15:00;;;;;;;14.20;9.50;;;;;;;8.66;69.71;93806.03;5111148;28;20504;-77
2023/12/14 09:17:26;;;;;;;15.20;10.30;;;;;;;8.80;69.08;93801.34;5111506;28;20028;-77
2023/12/14 09:19:51;;;;;;;34.92;21.40;;;;;;;9.04;68.72;93793.09;5112678;28;20110;-77
2023/12/14 09:22:17;;;;;;;35.58;22.10;;;;;;;9.15;68.17;93805.88;5094455;28;20481;-77
2023/12/14 09:24:42;;;;;;;30.95;19.33;;;;;;;9.20;68.53;93789.91;5112492;28;20027;-77
2023/12/14 09:27:08;;;;;;;26.25;18.00;;;;;;;9.40;67.93;93791.44;5094306;28;20020;-77
2023/12/14 09:29:33;;;;;;;19.55;13.88;;;;;;;9.34;68.38;93774.69;5094079;28;20136;-77
2023/12/14 09:31:59;;;;;;;15.20;10.43;;;;;;;9.26;68.02;93774.59;5094253;28;20024;-77
2023/12/14 09:34:24;;;;;;;13.38;9.85;;;;;;;9.50;66.30;93799.16;5077276;28;20027;-77
2023/12/14 09:36:50;;;;;;;15.88;12.20;;;;;;;9.39;67.42;93797.59;5111160;28;20530;-77
2023/12/14 09:39:15;;;;;;;17.40;12.93;;;;;;;9.59;67.08;93809.47;5112761;28;20366;-77
2023/12/14 09:41:40;;;;;;;19.85;15.70;;;;;;;9.52;66.40;93797.25;5112221;28;20027;-77
2023/12/14 09:44:09;;;;;;;12.45;9.98;;;;;;;9.69;66.09;93808.59;5111159;28;20041;-77
2023/12/14 09:46:36;;;;;;;15.02;9.63;;;;;;;9.40;66.08;93784.47;5110940;28;20147;-77
2023/12/14 09:49:02;;;;;;;13.98;9.60;;;;;;;9.60;65.63;93798.13;5094107;28;20042;-77
2023/12/14 09:51:27;;;;;;;11.75;8.80;;;;;;;9.82;64.98;93802.09;5093942;28;20409;-77
2023/12/14 09:53:57;;;;;;;11.52;8.95;;;;;;;9.95;64.55;93809.53;5110914;28;20028;-77
2023/12/14 09:56:24;;;;;;;14.52;10.38;;;;;;;9.80;64.86;93814.38;5079825;28;20500;-77
2023/12/14 09:58:50;;;;;;;15.23;11.48;;;;;;;10.02;63.92;93809.75;5090450;28;20032;-77
2023/12/14 10:01:26;;;;;;;17.30;11.75;;;;;;;9.97;62.61;93781.66;5090351;28;20505;-78
2023/12/14 10:04:09;;;;;;;16.52;10.77;;;;;;;10.07;62.20;93808.34;5073536;28;20043;-77
2023/12/14 10:06:34;;;;;;;17.45;11.75;;;;;;;9.80;64.34;93816.16;5089067;28;20030;-77
2023/12/14 10:08:59;;;;;;;14.90;11.00;;;;;;;10.04;64.02;93803.44;5091796;28;20039;-77
2023/12/14 10:11:25;;;;;;;16.35;11.93;;;;;;;10.00;64.53;93816.84;5090161;28;20449;-77
2023/12/14 10:13:50;;;;;;;16.23;11.13;;;;;;;10.12;63.59;93800.13;5090048;28;20486;-77
2023/12/14 10:16:32;;;;;;;17.02;11.18;;;;;;;10.29;63.23;93801.91;5089924;28;20028;-77
2023/12/14 10:18:58;;;;;;;14.43;9.88;;;;;;;10.40;61.48;93820.81;5090130;28;20494;-77
2023/12/14 10:21:25;;;;;;;17.58;11.63;;;;;;;10.29;62.36;93812.28;5073248;28;20028;-77
2023/12/14 10:23:51;;;;;;;15.73;10.15;;;;;;;10.45;62.09;93823.78;5090036;28;20524;-77
2023/12/14 10:26:16;;;;;;;18.42;11.50;;;;;;;10.38;62.29;93817.56;5089360;28;20021;-77
2023/12/14 10:28:41;;;;;;;16.95;10.93;;;;;;;10.54;61.32;93809.91;5091371;28;20531;-77
2023/12/14 10:31:07;;;;;;;14.75;10.77;;;;;;;10.51;59.93;93810.19;5091044;28;20487;-77
2023/12/14 10:33:33;;;;;;;15.23;9.95;;;;;;;10.49;60.39;93797.34;5089994;28;20032;-77
2023/12/14 10:35:58;;;;;;;13.73;10.73;;;;;;;10.43;60.85;93797.16;5089644;28;20028;-78
2023/12/14 10:38:24;;;;;;;19.77;14.05;;;;;;;10.52;61.71;93827.41;5073086;28;20036;-77
2023/12/14 10:40:50;;;;;;;23.58;14.07;;;;;;;10.34;61.43;93813.63;5089873;28;20059;-77
2023/12/14 10:43:15;;;;;;;22.73;13.55;;;;;;;10.24;62.67;93831.84;5073093;28;20047;-77
2023/12/14 10:45:41;;;;;;;20.98;13.52;;;;;;;10.41;62.85;93822.44;5072871;28;20021;-77
2023/12/14 10:48:06;;;;;;;21.45;15.70;;;;;;;9.96;62.54;93810.34;5072848;28;20035;-77
2023/12/14 10:50:31;;;;;;;18.95;13.63;;;;;;;10.21;62.23;93832.94;5072891;28;20040;-77
2023/12/14 10:52:57;;;;;;;19.75;13.30;;;;;;;10.24;62.00;93824.06;5056113;28;20039;-77
2023/12/14 10:55:41;;;;;;;17.58;9.82;;;;;;;10.23;62.21;93841.41;5072806;28;20665;-77
2023/12/14 10:58:07;;;;;;;11.73;9.48;;;;;;;10.19;62.08;93860.00;5091000;28;20024;-77
2023/12/14 11:00:33;;;;;;;19.13;11.63;;;;;;;10.00;62.76;93860.97;5072870;28;20028;-77
2023/12/14 11:02:59;;;;;;;13.85;10.00;;;;;;;10.31;62.12;93881.41;5089618;28;20036;-77
2023/12/14 11:05:29;;;;;;;13.13;9.40;;;;;;;10.30;62.54;93857.22;5072826;28;20420;-77
2023/12/14 11:08:09;;;;;;;18.85;12.40;;;;;;;10.50;62.13;93882.09;5089522;28;20051;-77
2023/12/14 11:10:43;;;;;;;21.35;13.00;;;;;;;10.49;61.61;93872.66;5090725;28;20028;-77
2023/12/14 11:13:13;;;;;;;14.93;8.55;;;;;;;9.98;63.32;93888.84;5072926;28;20040;-77
2023/12/14 11:15:52;;;;;;;17.02;8.27;;;;;;;10.09;64.24;93893.03;5089349;28;20036;-77
2023/12/14 11:18:17;;;;;;;10.63;7.35;;;;;;;10.11;65.09;93899.66;5072970;28;20032;-77
2023/12/14 11:20:46;;;;;;;11.00;7.65;;;;;;;10.02;65.77;93914.34;5090530;28;20032;-77